Harlem Springs, Ohio
Current Conditions -  °F | °C
As of 5:53 PM on Monday 24 Nov 2014 (Local Time) from KPHD Reporting Station
Few Clouds Few Clouds  
Wind Chill: 50°   Ceiling: Unl
Heat Index: 50°   Visibility: 10mi
Dew Point: 36°   Wind: 15mph
Humidity: 59%   Direction: 250°WSW
Pressure: 29.69"   Gusts: 23mph
Location:  40.52°N, 81°W
Report Text: KPHD 242253Z AUTO 25013G20KT 10SM FEW041 10/02 A2969 RMK AO2 PK WND 25030/2211 SLP053 T01000022
Loading
Personal Weather Stations






























Interactive Weather Map New forecast layout! Learn more

10-Day Weather Forecast

Advertisements
Track Severe Weather on mobile